sensor_id;sensor_type;location;lat;lon;timestamp;temperature;humidity
19555;DHT22;9924;50.828;6.440;2024-03-17T00:02:23;6.00;99.90
19555;DHT22;9924;50.828;6.440;2024-03-17T00:04:49;6.00;99.90
19555;DHT22;9924;50.828;6.440;2024-03-17T00:07:14;5.90;99.90
19555;DHT22;9924;50.828;6.440;2024-03-17T00:09:41;6.00;99.90
19555;DHT22;9924;50.828;6.440;2024-03-17T00:12:07;6.00;99.90
19555;DHT22;9924;50.828;6.440;2024-03-17T00:14:34;6.10;99.90
19555;DHT22;9924;50.828;6.440;2024-03-17T00:17:02;6.10;99.90
19555;DHT22;9924;50.828;6.440;2024-03-17T00:19:28;6.20;99.90
19555;DHT22;9924;50.828;6.440;2024-03-17T00:21:54;6.20;99.90
19555;DHT22;9924;50.828;6.440;2024-03-17T00:24:20;6.20;99.90
19555;DHT22;9924;50.828;6.440;2024-03-17T00:26:47;6.20;99.90
19555;DHT22;9924;50.828;6.440;2024-03-17T00:29:12;6.20;99.90
19555;DHT22;9924;50.828;6.440;2024-03-17T00:31:40;6.20;99.90
19555;DHT22;9924;50.828;6.440;2024-03-17T00:34:06;6.20;99.90
19555;DHT22;9924;50.828;6.440;2024-03-17T00:36:32;6.20;99.90
19555;DHT22;9924;50.828;6.440;2024-03-17T00:38:58;6.20;99.90
19555;DHT22;9924;50.828;6.440;2024-03-17T00:41:23;6.10;99.90
19555;DHT22;9924;50.828;6.440;2024-03-17T00:43:50;6.10;99.90
19555;DHT22;9924;50.828;6.440;2024-03-17T00:46:18;6.10;99.90
19555;DHT22;9924;50.828;6.440;2024-03-17T00:48:47;6.10;99.90
19555;DHT22;9924;50.828;6.440;2024-03-17T00:51:14;6.10;99.90
19555;DHT22;9924;50.828;6.440;2024-03-17T00:53:40;6.00;99.90
19555;DHT22;9924;50.828;6.440;2024-03-17T00:56:05;5.90;99.90
19555;DHT22;9924;50.828;6.440;2024-03-17T00:58:32;6.00;99.90
19555;DHT22;9924;50.828;6.440;2024-03-17T01:00:57;6.00;99.90
19555;DHT22;9924;50.828;6.440;2024-03-17T01:03:23;5.90;99.90
19555;DHT22;9924;50.828;6.440;2024-03-17T01:05:49;5.90;99.90
19555;DHT22;9924;50.828;6.440;2024-03-17T01:08:18;5.90;99.90
19555;DHT22;9924;50.828;6.440;2024-03-17T01:10:45;5.90;99.90
19555;DHT22;9924;50.828;6.440;2024-03-17T01:13:11;6.00;99.90
19555;DHT22;9924;50.828;6.440;2024-03-17T01:15:38;5.90;99.90
19555;DHT22;9924;50.828;6.440;2024-03-17T01:18:05;5.90;99.90
19555;DHT22;9924;50.828;6.440;2024-03-17T01:20:31;5.80;99.90
19555;DHT22;9924;50.828;6.440;2024-03-17T01:22:57;5.80;99.90
19555;DHT22;9924;50.828;6.440;2024-03-17T01:25:23;5.80;99.90
19555;DHT22;9924;50.828;6.440;2024-03-17T01:27:53;5.80;99.90
19555;DHT22;9924;50.828;6.440;2024-03-17T01:30:19;5.80;99.90
19555;DHT22;9924;50.828;6.440;2024-03-17T01:32:45;5.80;99.90
19555;DHT22;9924;50.828;6.440;2024-03-17T01:35:11;5.80;99.90
19555;DHT22;9924;50.828;6.440;2024-03-17T01:37:38;5.70;99.90
19555;DHT22;9924;50.828;6.440;2024-03-17T01:40:04;5.70;99.90
19555;DHT22;9924;50.828;6.440;2024-03-17T01:42:38;5.70;99.90
19555;DHT22;9924;50.828;6.440;2024-03-17T01:47:42;5.60;99.90
19555;DHT22;9924;50.828;6.440;2024-03-17T01:50:09;5.60;99.90
19555;DHT22;9924;50.828;6.440;2024-03-17T01:52:36;5.50;99.90
19555;DHT22;9924;50.828;6.440;2024-03-17T01:55:03;5.40;99.90
19555;DHT22;9924;50.828;6.440;2024-03-17T01:57:29;5.40;99.90
19555;DHT22;9924;50.828;6.440;2024-03-17T01:59:56;5.40;99.90
19555;DHT22;9924;50.828;6.440;2024-03-17T02:02:22;5.40;99.90
19555;DHT22;9924;50.828;6.440;2024-03-17T02:04:48;5.40;99.90
19555;DHT22;9924;50.828;6.440;2024-03-17T02:07:14;5.50;99.90
19555;DHT22;9924;50.828;6.440;2024-03-17T02:09:41;5.40;99.90
19555;DHT22;9924;50.828;6.440;2024-03-17T02:12:08;5.40;99.90
19555;DHT22;9924;50.828;6.440;2024-03-17T02:14:35;5.40;99.90
19555;DHT22;9924;50.828;6.440;2024-03-17T02:17:00;5.40;99.90
19555;DHT22;9924;50.828;6.440;2024-03-17T02:19:26;5.40;99.90
19555;DHT22;9924;50.828;6.440;2024-03-17T02:21:52;5.40;99.90
19555;DHT22;9924;50.828;6.440;2024-03-17T02:24:17;5.40;99.90
19555;DHT22;9924;50.828;6.440;2024-03-17T02:26:43;5.40;99.90
19555;DHT22;9924;50.828;6.440;2024-03-17T02:29:09;5.50;99.90
19555;DHT22;9924;50.828;6.440;2024-03-17T02:31:35;5.50;99.90
19555;DHT22;9924;50.828;6.440;2024-03-17T02:34:01;5.60;99.90
19555;DHT22;9924;50.828;6.440;2024-03-17T02:36:26;5.60;99.90
19555;DHT22;9924;50.828;6.440;2024-03-17T02:38:52;5.60;99.90
19555;DHT22;9924;50.828;6.440;2024-03-17T02:41:37;5.60;99.90
19555;DHT22;9924;50.828;6.440;2024-03-17T02:44:02;5.60;99.90
19555;DHT22;9924;50.828;6.440;2024-03-17T02:46:28;5.60;99.90
19555;DHT22;9924;50.828;6.440;2024-03-17T02:48:54;5.60;99.90
19555;DHT22;9924;50.828;6.440;2024-03-17T02:51:21;5.60;99.90
19555;DHT22;9924;50.828;6.440;2024-03-17T02:53:48;5.60;99.90
19555;DHT22;9924;50.828;6.440;2024-03-17T02:56:16;5.60;99.90
19555;DHT22;9924;50.828;6.440;2024-03-17T02:58:43;5.60;99.90
19555;DHT22;9924;50.828;6.440;2024-03-17T03:01:09;5.60;99.90
19555;DHT22;9924;50.828;6.440;2024-03-17T03:03:35;5.70;99.90
19555;DHT22;9924;50.828;6.440;2024-03-17T03:06:01;5.70;99.90
19555;DHT22;9924;50.828;6.440;2024-03-17T03:08:30;5.70;99.90
19555;DHT22;9924;50.828;6.440;2024-03-17T03:10:56;5.70;99.90
19555;DHT22;9924;50.828;6.440;2024-03-17T03:13:22;5.70;99.90
19555;DHT22;9924;50.828;6.440;2024-03-17T03:15:48;5.70;99.90
19555;DHT22;9924;50.828;6.440;2024-03-17T03:18:14;5.70;99.90
19555;DHT22;9924;50.828;6.440;2024-03-17T03:20:40;5.80;99.90
19555;DHT22;9924;50.828;6.440;2024-03-17T03:23:06;5.80;99.90
19555;DHT22;9924;50.828;6.440;2024-03-17T03:25:32;5.80;99.90
19555;DHT22;9924;50.828;6.440;2024-03-17T03:27:58;5.80;99.90
19555;DHT22;9924;50.828;6.440;2024-03-17T03:30:24;5.90;99.90
19555;DHT22;9924;50.828;6.440;2024-03-17T03:32:50;5.90;99.90
19555;DHT22;9924;50.828;6.440;2024-03-17T03:35:16;5.90;99.90
19555;DHT22;9924;50.828;6.440;2024-03-17T03:37:41;5.90;99.90
19555;DHT22;9924;50.828;6.440;2024-03-17T03:40:08;5.90;99.90
19555;DHT22;9924;50.828;6.440;2024-03-17T03:42:44;6.00;99.90
19555;DHT22;9924;50.828;6.440;2024-03-17T03:45:10;6.00;99.90
19555;DHT22;9924;50.828;6.440;2024-03-17T03:47:39;6.10;99.90
19555;DHT22;9924;50.828;6.440;2024-03-17T03:50:09;6.10;99.90
19555;DHT22;9924;50.828;6.440;2024-03-17T03:52:36;6.10;99.90
19555;DHT22;9924;50.828;6.440;2024-03-17T03:55:03;6.10;99.90
19555;DHT22;9924;50.828;6.440;2024-03-17T03:57:30;6.10;99.90
19555;DHT22;9924;50.828;6.440;2024-03-17T03:59:58;6.10;99.90
19555;DHT22;9924;50.828;6.440;2024-03-17T04:02:24;6.10;99.90
19555;DHT22;9924;50.828;6.440;2024-03-17T04:04:53;6.10;99.90
19555;DHT22;9924;50.828;6.440;2024-03-17T04:07:18;6.20;99.90
19555;DHT22;9924;50.828;6.440;2024-03-17T04:09:44;6.20;99.90
19555;DHT22;9924;50.828;6.440;2024-03-17T04:12:09;6.20;99.90
19555;DHT22;9924;50.828;6.440;2024-03-17T04:14:35;6.20;99.90
19555;DHT22;9924;50.828;6.440;2024-03-17T04:17:01;6.20;99.90
19555;DHT22;9924;50.828;6.440;2024-03-17T04:19:26;6.20;99.90
19555;DHT22;9924;50.828;6.440;2024-03-17T04:21:54;6.20;99.90
19555;DHT22;9924;50.828;6.440;2024-03-17T04:24:20;6.30;99.90
19555;DHT22;9924;50.828;6.440;2024-03-17T04:26:45;6.30;99.90
19555;DHT22;9924;50.828;6.440;2024-03-17T04:29:11;6.30;99.90
19555;DHT22;9924;50.828;6.440;2024-03-17T04:31:37;6.30;99.90
19555;DHT22;9924;50.828;6.440;2024-03-17T04:34:03;6.30;99.90
19555;DHT22;9924;50.828;6.440;2024-03-17T04:36:29;6.30;99.90
19555;DHT22;9924;50.828;6.440;2024-03-17T04:38:54;6.30;99.90
19555;DHT22;9924;50.828;6.440;2024-03-17T04:41:20;6.40;99.90
19555;DHT22;9924;50.828;6.440;2024-03-17T04:43:46;6.30;99.90
19555;DHT22;9924;50.828;6.440;2024-03-17T04:46:11;6.30;99.90
19555;DHT22;9924;50.828;6.440;2024-03-17T04:48:39;6.30;99.90
19555;DHT22;9924;50.828;6.440;2024-03-17T04:51:05;6.30;99.90
19555;DHT22;9924;50.828;6.440;2024-03-17T04:53:30;6.20;99.90
19555;DHT22;9924;50.828;6.440;2024-03-17T04:56:04;6.20;99.90
19555;DHT22;9924;50.828;6.440;2024-03-17T04:58:31;6.20;99.90
19555;DHT22;9924;50.828;6.440;2024-03-17T05:00:57;6.20;99.90
19555;DHT22;9924;50.828;6.440;2024-03-17T05:03:23;6.20;99.90
19555;DHT22;9924;50.828;6.440;2024-03-17T05:05:48;6.20;99.90
19555;DHT22;9924;50.828;6.440;2024-03-17T05:08:14;6.20;99.90
19555;DHT22;9924;50.828;6.440;2024-03-17T05:10:40;6.10;99.90
19555;DHT22;9924;50.828;6.440;2024-03-17T05:13:06;6.10;99.90
19555;DHT22;9924;50.828;6.440;2024-03-17T05:15:31;6.10;99.90
19555;DHT22;9924;50.828;6.440;2024-03-17T05:17:57;6.10;99.90
19555;DHT22;9924;50.828;6.440;2024-03-17T05:20:22;6.10;99.90
19555;DHT22;9924;50.828;6.440;2024-03-17T05:22:49;6.00;99.90
19555;DHT22;9924;50.828;6.440;2024-03-17T05:25:15;6.00;99.90
19555;DHT22;9924;50.828;6.440;2024-03-17T05:27:40;5.90;99.90
19555;DHT22;9924;50.828;6.440;2024-03-17T05:30:06;5.90;99.90
19555;DHT22;9924;50.828;6.440;2024-03-17T05:32:34;5.80;99.90
19555;DHT22;9924;50.828;6.440;2024-03-17T05:35:00;5.80;99.90
19555;DHT22;9924;50.828;6.440;2024-03-17T05:37:26;5.70;99.90
19555;DHT22;9924;50.828;6.440;2024-03-17T05:39:53;5.70;99.90
19555;DHT22;9924;50.828;6.440;2024-03-17T05:42:19;5.70;99.90
19555;DHT22;9924;50.828;6.440;2024-03-17T05:44:45;5.60;99.90
19555;DHT22;9924;50.828;6.440;2024-03-17T05:47:19;5.50;99.90
19555;DHT22;9924;50.828;6.440;2024-03-17T05:49:45;5.50;99.90
19555;DHT22;9924;50.828;6.440;2024-03-17T05:52:11;5.40;99.90
19555;DHT22;9924;50.828;6.440;2024-03-17T05:54:37;5.40;99.90
19555;DHT22;9924;50.828;6.440;2024-03-17T05:57:04;5.40;99.90
19555;DHT22;9924;50.828;6.440;2024-03-17T05:59:30;5.40;99.90
19555;DHT22;9924;50.828;6.440;2024-03-17T06:01:59;5.40;99.90
19555;DHT22;9924;50.828;6.440;2024-03-17T06:04:24;5.40;99.90
19555;DHT22;9924;50.828;6.440;2024-03-17T06:06:50;5.30;99.90
19555;DHT22;9924;50.828;6.440;2024-03-17T06:09:15;5.40;99.90
19555;DHT22;9924;50.828;6.440;2024-03-17T06:11:46;5.40;99.90
19555;DHT22;9924;50.828;6.440;2024-03-17T06:14:11;5.40;99.90
19555;DHT22;9924;50.828;6.440;2024-03-17T06:16:38;5.40;99.90
19555;DHT22;9924;50.828;6.440;2024-03-17T06:19:04;5.50;99.90
19555;DHT22;9924;50.828;6.440;2024-03-17T06:21:30;5.60;99.90
19555;DHT22;9924;50.828;6.440;2024-03-17T06:23:56;5.70;99.90
19555;DHT22;9924;50.828;6.440;2024-03-17T06:26:23;5.80;99.90
19555;DHT22;9924;50.828;6.440;2024-03-17T06:28:49;5.80;99.90
19555;DHT22;9924;50.828;6.440;2024-03-17T06:31:14;5.80;99.90
19555;DHT22;9924;50.828;6.440;2024-03-17T06:33:41;6.00;99.90
19555;DHT22;9924;50.828;6.440;2024-03-17T06:36:07;6.40;99.90
19555;DHT22;9924;50.828;6.440;2024-03-17T06:38:34;6.90;99.90
19555;DHT22;9924;50.828;6.440;2024-03-17T06:41:00;7.50;99.90
19555;DHT22;9924;50.828;6.440;2024-03-17T06:43:26;7.90;99.90
19555;DHT22;9924;50.828;6.440;2024-03-17T06:45:59;8.10;99.90
19555;DHT22;9924;50.828;6.440;2024-03-17T06:48:27;8.30;99.90
19555;DHT22;9924;50.828;6.440;2024-03-17T06:50:53;8.60;99.90
19555;DHT22;9924;50.828;6.440;2024-03-17T06:53:20;8.90;99.90
19555;DHT22;9924;50.828;6.440;2024-03-17T06:55:56;9.00;99.90
19555;DHT22;9924;50.828;6.440;2024-03-17T06:58:23;9.10;99.90
19555;DHT22;9924;50.828;6.440;2024-03-17T07:00:56;9.40;99.90
19555;DHT22;9924;50.828;6.440;2024-03-17T07:03:26;9.60;99.90
19555;DHT22;9924;50.828;6.440;2024-03-17T07:05:52;9.90;99.90
19555;DHT22;9924;50.828;6.440;2024-03-17T07:08:19;10.30;99.90
19555;DHT22;9924;50.828;6.440;2024-03-17T07:11:05;10.60;99.90
19555;DHT22;9924;50.828;6.440;2024-03-17T07:13:36;10.90;99.90
19555;DHT22;9924;50.828;6.440;2024-03-17T07:16:06;11.10;99.90
19555;DHT22;9924;50.828;6.440;2024-03-17T07:18:32;11.00;99.90
19555;DHT22;9924;50.828;6.440;2024-03-17T07:20:59;10.90;99.90
19555;DHT22;9924;50.828;6.440;2024-03-17T07:23:27;10.80;99.90
19555;DHT22;9924;50.828;6.440;2024-03-17T07:25:56;10.80;99.90
19555;DHT22;9924;50.828;6.440;2024-03-17T07:28:23;10.80;99.90
19555;DHT22;9924;50.828;6.440;2024-03-17T07:30:50;10.70;99.90
19555;DHT22;9924;50.828;6.440;2024-03-17T07:33:16;10.80;99.90
19555;DHT22;9924;50.828;6.440;2024-03-17T07:35:52;10.80;99.90
19555;DHT22;9924;50.828;6.440;2024-03-17T07:38:19;10.90;99.90
19555;DHT22;9924;50.828;6.440;2024-03-17T07:40:54;10.70;99.90
19555;DHT22;9924;50.828;6.440;2024-03-17T07:43:21;10.50;99.90
19555;DHT22;9924;50.828;6.440;2024-03-17T07:45:47;10.30;99.90
19555;DHT22;9924;50.828;6.440;2024-03-17T07:48:13;10.10;99.90
19555;DHT22;9924;50.828;6.440;2024-03-17T07:50:38;10.00;99.90
19555;DHT22;9924;50.828;6.440;2024-03-17T07:53:04;9.80;99.90
19555;DHT22;9924;50.828;6.440;2024-03-17T07:55:30;9.80;99.90
19555;DHT22;9924;50.828;6.440;2024-03-17T07:57:56;9.90;99.90
19555;DHT22;9924;50.828;6.440;2024-03-17T08:00:22;10.10;99.90
19555;DHT22;9924;50.828;6.440;2024-03-17T08:02:48;10.30;99.90
19555;DHT22;9924;50.828;6.440;2024-03-17T08:05:14;10.40;99.90
19555;DHT22;9924;50.828;6.440;2024-03-17T08:07:40;10.40;99.90
19555;DHT22;9924;50.828;6.440;2024-03-17T08:10:08;10.40;99.90
19555;DHT22;9924;50.828;6.440;2024-03-17T08:12:34;10.50;99.90
19555;DHT22;9924;50.828;6.440;2024-03-17T08:14:59;10.70;99.90
19555;DHT22;9924;50.828;6.440;2024-03-17T08:17:25;11.00;99.90
19555;DHT22;9924;50.828;6.440;2024-03-17T08:19:51;11.50;99.90
19555;DHT22;9924;50.828;6.440;2024-03-17T08:22:17;12.00;99.90
19555;DHT22;9924;50.828;6.440;2024-03-17T08:24:43;12.40;99.90
19555;DHT22;9924;50.828;6.440;2024-03-17T08:27:08;12.90;99.90
19555;DHT22;9924;50.828;6.440;2024-03-17T08:29:34;13.10;99.90
19555;DHT22;9924;50.828;6.440;2024-03-17T08:32:00;13.00;99.90
19555;DHT22;9924;50.828;6.440;2024-03-17T08:34:26;13.10;99.90
19555;DHT22;9924;50.828;6.440;2024-03-17T08:36:52;13.10;99.90
19555;DHT22;9924;50.828;6.440;2024-03-17T08:39:18;13.00;99.90
19555;DHT22;9924;50.828;6.440;2024-03-17T08:41:44;13.00;99.90
19555;DHT22;9924;50.828;6.440;2024-03-17T08:44:11;13.10;99.90
19555;DHT22;9924;50.828;6.440;2024-03-17T08:46:36;13.20;99.90
19555;DHT22;9924;50.828;6.440;2024-03-17T08:49:02;13.20;99.90
19555;DHT22;9924;50.828;6.440;2024-03-17T08:51:28;13.10;99.90
19555;DHT22;9924;50.828;6.440;2024-03-17T08:53:54;13.10;99.90
19555;DHT22;9924;50.828;6.440;2024-03-17T08:56:20;12.90;99.90
19555;DHT22;9924;50.828;6.440;2024-03-17T08:58:46;12.90;99.90
19555;DHT22;9924;50.828;6.440;2024-03-17T09:01:14;12.70;99.90
19555;DHT22;9924;50.828;6.440;2024-03-17T09:03:40;12.70;99.90
19555;DHT22;9924;50.828;6.440;2024-03-17T09:06:16;12.90;99.90
19555;DHT22;9924;50.828;6.440;2024-03-17T09:08:42;13.30;99.90
19555;DHT22;9924;50.828;6.440;2024-03-17T09:11:12;13.60;99.90
19555;DHT22;9924;50.828;6.440;2024-03-17T09:13:38;13.90;99.90
19555;DHT22;9924;50.828;6.440;2024-03-17T09:16:04;14.10;99.90
19555;DHT22;9924;50.828;6.440;2024-03-17T09:18:31;14.30;99.90
19555;DHT22;9924;50.828;6.440;2024-03-17T09:20:57;14.20;99.90
19555;DHT22;9924;50.828;6.440;2024-03-17T09:23:23;14.10;99.90
19555;DHT22;9924;50.828;6.440;2024-03-17T09:26:00;14.20;99.90
19555;DHT22;9924;50.828;6.440;2024-03-17T09:28:26;14.10;99.90
19555;DHT22;9924;50.828;6.440;2024-03-17T09:30:53;14.00;99.90
19555;DHT22;9924;50.828;6.440;2024-03-17T09:33:23;13.90;99.90
19555;DHT22;9924;50.828;6.440;2024-03-17T09:35:55;13.90;99.90
19555;DHT22;9924;50.828;6.440;2024-03-17T09:38:21;13.80;99.90
19555;DHT22;9924;50.828;6.440;2024-03-17T09:40:48;13.90;99.90
19555;DHT22;9924;50.828;6.440;2024-03-17T09:43:22;14.00;99.90
19555;DHT22;9924;50.828;6.440;2024-03-17T09:45:49;14.20;99.90
19555;DHT22;9924;50.828;6.440;2024-03-17T09:48:17;14.40;99.90
19555;DHT22;9924;50.828;6.440;2024-03-17T09:51:02;14.60;99.90
19555;DHT22;9924;50.828;6.440;2024-03-17T09:53:32;14.70;99.90
19555;DHT22;9924;50.828;6.440;2024-03-17T09:56:10;14.70;99.90
19555;DHT22;9924;50.828;6.440;2024-03-17T09:58:37;14.70;99.90
19555;DHT22;9924;50.828;6.440;2024-03-17T10:01:03;14.70;99.90
19555;DHT22;9924;50.828;6.440;2024-03-17T10:04:04;14.80;99.90
19555;DHT22;9924;50.828;6.440;2024-03-17T10:06:30;14.90;99.90
19555;DHT22;9924;50.828;6.440;2024-03-17T10:08:58;15.00;99.90
19555;DHT22;9924;50.828;6.440;2024-03-17T10:11:34;15.10;99.90
19555;DHT22;9924;50.828;6.440;2024-03-17T10:14:05;15.10;99.90
19555;DHT22;9924;50.828;6.440;2024-03-17T10:16:32;15.20;99.90
19555;DHT22;9924;50.828;6.440;2024-03-17T10:21:44;15.40;99.90
19555;DHT22;9924;50.828;6.440;2024-03-17T10:24:24;15.60;99.90
19555;DHT22;9924;50.828;6.440;2024-03-17T10:26:51;15.70;99.90
19555;DHT22;9924;50.828;6.440;2024-03-17T10:29:24;15.60;99.90
19555;DHT22;9924;50.828;6.440;2024-03-17T10:31:57;15.50;99.90
19555;DHT22;9924;50.828;6.440;2024-03-17T10:34:24;15.50;99.90
19555;DHT22;9924;50.828;6.440;2024-03-17T10:37:24;15.50;99.90
19555;DHT22;9924;50.828;6.440;2024-03-17T10:39:46;15.50;99.90
19555;DHT22;9924;50.828;6.440;2024-03-17T10:42:25;15.50;99.90
19555;DHT22;9924;50.828;6.440;2024-03-17T10:44:54;15.50;99.90
19555;DHT22;9924;50.828;6.440;2024-03-17T10:47:27;15.40;99.90
19555;DHT22;9924;50.828;6.440;2024-03-17T10:49:56;15.30;99.90
19555;DHT22;9924;50.828;6.440;2024-03-17T10:52:23;15.50;99.90
19555;DHT22;9924;50.828;6.440;2024-03-17T10:54:54;15.60;99.90
19555;DHT22;9924;50.828;6.440;2024-03-17T11:00:04;15.50;99.90
19555;DHT22;9924;50.828;6.440;2024-03-17T11:02:31;15.50;99.90
19555;DHT22;9924;50.828;6.440;2024-03-17T11:05:02;15.60;99.90
19555;DHT22;9924;50.828;6.440;2024-03-17T11:07:29;15.50;99.90
19555;DHT22;9924;50.828;6.440;2024-03-17T11:09:58;15.40;99.90
19555;DHT22;9924;50.828;6.440;2024-03-17T11:20:33;15.00;99.90
19555;DHT22;9924;50.828;6.440;2024-03-17T11:22:59;15.00;99.90
19555;DHT22;9924;50.828;6.440;2024-03-17T11:27:55;15.00;99.90
19555;DHT22;9924;50.828;6.440;2024-03-17T11:41:53;15.40;99.90
19555;DHT22;9924;50.828;6.440;2024-03-17T11:49:26;15.10;99.90
19555;DHT22;9924;50.828;6.440;2024-03-17T11:51:54;15.00;99.90
19555;DHT22;9924;50.828;6.440;2024-03-17T11:54:25;15.00;99.90
19555;DHT22;9924;50.828;6.440;2024-03-17T11:56:54;15.10;99.90
19555;DHT22;9924;50.828;6.440;2024-03-17T11:59:20;15.00;99.90
19555;DHT22;9924;50.828;6.440;2024-03-17T12:01:47;15.10;99.90
19555;DHT22;9924;50.828;6.440;2024-03-17T12:04:14;15.20;99.90
19555;DHT22;9924;50.828;6.440;2024-03-17T12:06:58;15.30;99.90
19555;DHT22;9924;50.828;6.440;2024-03-17T12:09:29;15.60;99.90
19555;DHT22;9924;50.828;6.440;2024-03-17T12:12:08;15.90;99.90
19555;DHT22;9924;50.828;6.440;2024-03-17T12:14:36;16.00;99.90
19555;DHT22;9924;50.828;6.440;2024-03-17T12:17:03;16.20;99.90
19555;DHT22;9924;50.828;6.440;2024-03-17T12:19:29;16.40;99.90
19555;DHT22;9924;50.828;6.440;2024-03-17T12:21:59;16.60;99.90
19555;DHT22;9924;50.828;6.440;2024-03-17T12:24:35;16.70;99.90
19555;DHT22;9924;50.828;6.440;2024-03-17T12:27:04;16.70;99.90
19555;DHT22;9924;50.828;6.440;2024-03-17T12:29:38;16.70;99.90
19555;DHT22;9924;50.828;6.440;2024-03-17T12:34:42;16.40;99.90
19555;DHT22;9924;50.828;6.440;2024-03-17T12:37:11;16.30;99.90
19555;DHT22;9924;50.828;6.440;2024-03-17T12:39:41;16.10;99.90
19555;DHT22;9924;50.828;6.440;2024-03-17T12:42:11;15.90;99.90
19555;DHT22;9924;50.828;6.440;2024-03-17T12:44:47;15.80;99.90
19555;DHT22;9924;50.828;6.440;2024-03-17T12:47:17;15.70;99.90
19555;DHT22;9924;50.828;6.440;2024-03-17T12:52:21;15.50;99.90
19555;DHT22;9924;50.828;6.440;2024-03-17T12:55:04;15.40;99.90
19555;DHT22;9924;50.828;6.440;2024-03-17T13:00:34;15.20;99.90
19555;DHT22;9924;50.828;6.440;2024-03-17T13:03:09;15.10;99.90
19555;DHT22;9924;50.828;6.440;2024-03-17T13:05:35;15.00;99.90
19555;DHT22;9924;50.828;6.440;2024-03-17T13:08:02;14.90;99.90
19555;DHT22;9924;50.828;6.440;2024-03-17T13:10:29;14.90;99.90
19555;DHT22;9924;50.828;6.440;2024-03-17T13:13:05;14.80;99.90
19555;DHT22;9924;50.828;6.440;2024-03-17T13:15:33;14.80;99.90
19555;DHT22;9924;50.828;6.440;2024-03-17T13:18:02;14.80;99.90
19555;DHT22;9924;50.828;6.440;2024-03-17T13:20:31;14.90;99.90
19555;DHT22;9924;50.828;6.440;2024-03-17T13:22:57;14.80;99.90
19555;DHT22;9924;50.828;6.440;2024-03-17T13:25:26;14.70;99.90
19555;DHT22;9924;50.828;6.440;2024-03-17T13:27:55;14.70;99.90
19555;DHT22;9924;50.828;6.440;2024-03-17T13:30:22;14.70;99.90
19555;DHT22;9924;50.828;6.440;2024-03-17T13:32:50;14.70;99.90
19555;DHT22;9924;50.828;6.440;2024-03-17T13:35:22;14.70;99.90
19555;DHT22;9924;50.828;6.440;2024-03-17T13:37:49;14.80;99.90
19555;DHT22;9924;50.828;6.440;2024-03-17T13:40:17;14.90;99.90
19555;DHT22;9924;50.828;6.440;2024-03-17T13:42:50;15.20;99.90
19555;DHT22;9924;50.828;6.440;2024-03-17T13:45:17;15.40;99.90
19555;DHT22;9924;50.828;6.440;2024-03-17T13:47:52;15.70;99.90
19555;DHT22;9924;50.828;6.440;2024-03-17T13:50:19;16.00;99.90
19555;DHT22;9924;50.828;6.440;2024-03-17T13:52:45;16.10;99.90
19555;DHT22;9924;50.828;6.440;2024-03-17T13:55:18;16.60;99.90
19555;DHT22;9924;50.828;6.440;2024-03-17T13:57:45;17.50;99.90
19555;DHT22;9924;50.828;6.440;2024-03-17T14:00:14;18.40;99.90
19555;DHT22;9924;50.828;6.440;2024-03-17T14:02:46;19.10;99.90
19555;DHT22;9924;50.828;6.440;2024-03-17T14:05:19;19.40;99.90
19555;DHT22;9924;50.828;6.440;2024-03-17T14:07:45;19.40;99.90
19555;DHT22;9924;50.828;6.440;2024-03-17T14:10:12;19.20;99.90
19555;DHT22;9924;50.828;6.440;2024-03-17T14:12:39;18.90;99.90
19555;DHT22;9924;50.828;6.440;2024-03-17T14:15:06;18.50;99.90
19555;DHT22;9924;50.828;6.440;2024-03-17T14:17:32;18.10;99.90
19555;DHT22;9924;50.828;6.440;2024-03-17T14:19:58;17.60;99.90
19555;DHT22;9924;50.828;6.440;2024-03-17T14:22:24;17.30;99.90
19555;DHT22;9924;50.828;6.440;2024-03-17T14:24:50;17.30;99.90
19555;DHT22;9924;50.828;6.440;2024-03-17T14:27:16;17.40;99.90
19555;DHT22;9924;50.828;6.440;2024-03-17T14:29:43;17.60;99.90
19555;DHT22;9924;50.828;6.440;2024-03-17T14:32:09;18.10;99.90
19555;DHT22;9924;50.828;6.440;2024-03-17T14:34:35;18.10;99.90
19555;DHT22;9924;50.828;6.440;2024-03-17T14:37:03;17.30;99.90
19555;DHT22;9924;50.828;6.440;2024-03-17T14:39:30;17.00;99.90
19555;DHT22;9924;50.828;6.440;2024-03-17T14:41:56;16.90;99.90
19555;DHT22;9924;50.828;6.440;2024-03-17T14:44:22;16.70;99.90
19555;DHT22;9924;50.828;6.440;2024-03-17T14:46:48;16.60;99.90
19555;DHT22;9924;50.828;6.440;2024-03-17T14:49:17;16.50;99.90
19555;DHT22;9924;50.828;6.440;2024-03-17T14:51:44;16.50;99.90
19555;DHT22;9924;50.828;6.440;2024-03-17T14:54:10;16.50;99.90
19555;DHT22;9924;50.828;6.440;2024-03-17T14:56:36;16.60;99.90
19555;DHT22;9924;50.828;6.440;2024-03-17T14:59:01;16.90;99.90
19555;DHT22;9924;50.828;6.440;2024-03-17T15:01:27;17.50;99.90
19555;DHT22;9924;50.828;6.440;2024-03-17T15:03:56;18.10;99.90
19555;DHT22;9924;50.828;6.440;2024-03-17T15:06:22;18.40;99.90
19555;DHT22;9924;50.828;6.440;2024-03-17T15:08:47;18.30;99.90
19555;DHT22;9924;50.828;6.440;2024-03-17T15:11:13;18.50;99.90
19555;DHT22;9924;50.828;6.440;2024-03-17T15:13:39;18.50;99.90
19555;DHT22;9924;50.828;6.440;2024-03-17T15:16:08;18.40;99.90
19555;DHT22;9924;50.828;6.440;2024-03-17T15:18:34;18.10;99.90
19555;DHT22;9924;50.828;6.440;2024-03-17T15:21:00;17.70;99.90
19555;DHT22;9924;50.828;6.440;2024-03-17T15:23:27;17.40;99.90
19555;DHT22;9924;50.828;6.440;2024-03-17T15:26:05;17.40;99.90
19555;DHT22;9924;50.828;6.440;2024-03-17T15:28:40;17.30;99.90
19555;DHT22;9924;50.828;6.440;2024-03-17T15:31:06;17.30;99.90
19555;DHT22;9924;50.828;6.440;2024-03-17T15:33:33;17.30;99.90
19555;DHT22;9924;50.828;6.440;2024-03-17T15:36:08;16.90;99.90
19555;DHT22;9924;50.828;6.440;2024-03-17T15:38:36;16.70;99.90
19555;DHT22;9924;50.828;6.440;2024-03-17T15:41:06;16.50;99.90
19555;DHT22;9924;50.828;6.440;2024-03-17T15:43:32;16.40;99.90
19555;DHT22;9924;50.828;6.440;2024-03-17T15:46:00;16.40;99.90
19555;DHT22;9924;50.828;6.440;2024-03-17T15:48:27;16.30;99.90
19555;DHT22;9924;50.828;6.440;2024-03-17T15:50:57;16.20;99.90
19555;DHT22;9924;50.828;6.440;2024-03-17T15:53:23;16.20;99.90
19555;DHT22;9924;50.828;6.440;2024-03-17T15:56:00;16.30;99.90
19555;DHT22;9924;50.828;6.440;2024-03-17T15:58:28;16.30;99.90
19555;DHT22;9924;50.828;6.440;2024-03-17T16:00:54;16.20;99.90
19555;DHT22;9924;50.828;6.440;2024-03-17T16:03:20;16.30;99.90
19555;DHT22;9924;50.828;6.440;2024-03-17T16:05:51;16.50;99.90
19555;DHT22;9924;50.828;6.440;2024-03-17T16:08:18;16.80;99.90
19555;DHT22;9924;50.828;6.440;2024-03-17T16:10:51;16.60;99.90
19555;DHT22;9924;50.828;6.440;2024-03-17T16:13:17;16.40;99.90
19555;DHT22;9924;50.828;6.440;2024-03-17T16:15:46;16.40;99.90
19555;DHT22;9924;50.828;6.440;2024-03-17T16:18:17;16.40;99.90
19555;DHT22;9924;50.828;6.440;2024-03-17T16:23:17;16.30;99.90
19555;DHT22;9924;50.828;6.440;2024-03-17T16:25:45;16.20;99.90
19555;DHT22;9924;50.828;6.440;2024-03-17T16:28:11;16.00;99.90
19555;DHT22;9924;50.828;6.440;2024-03-17T16:30:38;15.90;99.90
19555;DHT22;9924;50.828;6.440;2024-03-17T16:33:05;15.70;99.90
19555;DHT22;9924;50.828;6.440;2024-03-17T16:35:31;15.60;99.90
19555;DHT22;9924;50.828;6.440;2024-03-17T16:37:58;15.50;99.90
19555;DHT22;9924;50.828;6.440;2024-03-17T16:40:24;15.40;99.90
19555;DHT22;9924;50.828;6.440;2024-03-17T16:42:49;15.10;99.90